Airfield :
LOGIN :

Register | Disclaimer

   EN    FR    IT 

 










Legend :    VFR   Marginal VFR   IFR   Intensive IFR   Very Intensive IFR
Visi :
Ceiling :
>= 8 km
>= 3000ft
5 to 8 km
1000 to 3000 ft
1500m to 5 km
500 to 1000 ft
800 to 1500m
200 to 500 ft
< 800m
< 200 ft
Symbols :   Thunderstorms  Fog  Heavy snow  Heavy precipitations  Wind > 20 kt
SIGMETs :     Misc.  Thunderstorms  Icing  Turbulence  Mountain Waves  Volcanic Ashes







- Airport Elevation : 138 ft
- IATA code : BIO


LEBB - Bilbao

CURRENT METAR :
  • 150730Z VRB01KT 9999 FEW040 SCT070 19/17 Q1022 NOSIG

EXPIRED METARs :
  • 150700Z 13003KT 100V190 9999 VCTS FEW030CB SCT045 19/17 Q1022 TEMPO SHRA SCT030TCU
  • 150630Z 09003KT 010V160 9999 VCTS FEW030CB BKN035 18/17 Q1022 RETSRA TEMPO SHRA SCT030TCU
  • 150606Z VRB02KT 8000 -TSRA FEW030CB BKN035 18/17 Q1022 TEMPO SHRA SCT030TCU
  • 150530Z 07005KT 050V110 9999 FEW035 18/17 Q1022 NOSIG
  • 150500Z 10003KT 060V170 9999 FEW035 18/16 Q1022 NOSIG

TAF AMD TAF LEBB
Valid from the 15 at 06:00 until the 16 at 06:00 UTC


150541Z 1506/1606 07008KT 9999 FEW035 TX29/1513Z TN17/1506Z
TEMPO 1506/1606 SCT030TCU
PROB30
TEMPO 1506/1510 SHRA FEW025CB BKN030TCU
PROB30
TEMPO 1510/1521 FEW030CB
PROB40
TEMPO 1513/1516 01009KT
PROB40
TEMPO 1521/1606 SHRA SCT025CB SCT030TCU
No reported NOTAMs for that airfield.



MET'MAP, your aeronautical weather chart ! - Copyright ORBIFLY December 2007 - Disclaimer

ORBIFLY MET'MAP TEAM :

Programming & Development : Alexandra Zaïnal
Concept & Development : Baudouin d'Aumeries
Co-Development & Prog : Marc-Olivier Méhu
Technical & hardware support : Manuel Goepfert

Contact : metmap@orbifly.com




SOURCES & CREDITS :

   NOAA